createdAt,value
2019-05-20T00:01:14.287Z,2.70
2019-05-20T00:03:40.835Z,3.90
2019-05-20T00:06:07.469Z,3.65
2019-05-20T00:08:34.305Z,3.55
2019-05-20T00:11:01.112Z,2.77
2019-05-20T00:13:27.931Z,3.90
2019-05-20T00:15:54.522Z,3.20
2019-05-20T00:18:20.957Z,9.50
2019-05-20T00:20:47.702Z,2.95
2019-05-20T00:23:14.150Z,4.17
2019-05-20T00:25:40.636Z,3.02
2019-05-20T00:28:07.235Z,3.33
2019-05-20T00:30:33.922Z,2.75
2019-05-20T00:33:00.655Z,2.98
2019-05-20T00:35:27.142Z,3.02
2019-05-20T00:37:53.804Z,2.45
2019-05-20T00:40:20.253Z,2.15
2019-05-20T00:42:46.698Z,3.52
2019-05-20T00:45:15.179Z,4.20
2019-05-20T00:47:41.541Z,7.08
2019-05-20T00:50:08.458Z,2.77
2019-05-20T00:52:36.091Z,2.10
2019-05-20T00:55:07.009Z,3.10
2019-05-20T00:57:33.420Z,3.30
2019-05-20T00:59:59.874Z,3.80
2019-05-20T01:02:26.354Z,2.08
2019-05-20T01:04:52.934Z,2.98
2019-05-20T01:07:19.338Z,2.00
2019-05-20T01:09:45.845Z,3.58
2019-05-20T01:12:12.499Z,2.05
2019-05-20T01:14:39.212Z,5.58
2019-05-20T01:17:05.657Z,2.70
2019-05-20T01:19:32.251Z,2.15
2019-05-20T01:21:58.744Z,3.47
2019-05-20T01:24:25.187Z,1.75
2019-05-20T01:26:51.796Z,2.70
2019-05-20T01:29:18.364Z,3.72
2019-05-20T01:31:44.840Z,3.10
2019-05-20T01:34:11.997Z,2.55
2019-05-20T01:36:38.554Z,1.67
2019-05-20T01:39:05.721Z,1.50
2019-05-20T01:41:32.247Z,2.17
2019-05-20T01:43:58.810Z,2.33
2019-05-20T01:46:25.227Z,1.75
2019-05-20T01:48:51.794Z,3.15
2019-05-20T01:51:18.196Z,1.65
2019-05-20T01:53:44.870Z,2.33
2019-05-20T01:56:11.471Z,2.95
2019-05-20T01:58:39.679Z,2.87
2019-05-20T02:01:06.415Z,1.77
2019-05-20T02:03:33.109Z,3.47
2019-05-20T02:05:59.914Z,3.60
2019-05-20T02:08:26.418Z,3.75
2019-05-20T02:10:56.316Z,4.90
2019-05-20T02:13:21.313Z,3.45
2019-05-20T02:15:49.595Z,1.60
2019-05-20T02:18:15.955Z,1.80
2019-05-20T02:20:42.561Z,2.55
2019-05-20T02:23:15.484Z,3.02
2019-05-20T02:25:47.072Z,3.52
2019-05-20T02:28:13.660Z,1.82
2019-05-20T02:30:40.303Z,5.17
2019-05-20T02:33:08.076Z,2.83
2019-05-20T02:35:34.537Z,1.47
2019-05-20T02:38:01.072Z,1.87
2019-05-20T02:40:27.720Z,4.55
2019-05-20T02:42:54.175Z,2.55
2019-05-20T02:45:22.001Z,3.55
2019-05-20T02:47:48.608Z,2.17
2019-05-20T02:50:15.281Z,1.67
2019-05-20T02:52:41.912Z,2.33
2019-05-20T02:55:09.117Z,1.40
2019-05-20T02:57:35.520Z,3.92
2019-05-20T03:00:06.545Z,1.85
2019-05-20T03:02:33.081Z,1.15
2019-05-20T03:04:59.640Z,1.65
2019-05-20T03:07:26.145Z,1.80
2019-05-20T03:09:52.488Z,1.60
2019-05-20T03:12:18.939Z,2.42
2019-05-20T03:14:45.518Z,3.70
2019-05-20T03:17:12.150Z,1.62
2019-05-20T03:19:38.626Z,1.17
2019-05-20T03:22:05.322Z,2.20
2019-05-20T03:24:31.938Z,1.72
2019-05-20T03:26:58.479Z,2.00
2019-05-20T03:29:25.210Z,2.62
2019-05-20T03:31:51.862Z,1.27
2019-05-20T03:34:44.280Z,2.50
2019-05-20T03:36:46.780Z,2.02
2019-05-20T03:39:13.312Z,1.40
2019-05-20T03:41:39.931Z,2.90
2019-05-20T03:44:06.419Z,3.95
2019-05-20T03:46:32.976Z,1.25
2019-05-20T03:48:59.728Z,3.05
2019-05-20T03:51:27.467Z,1.60
2019-05-20T03:53:54.007Z,1.30
2019-05-20T03:56:20.424Z,2.55
2019-05-20T03:58:47.123Z,4.00
2019-05-20T04:01:13.622Z,2.62
2019-05-20T04:03:40.167Z,2.08
2019-05-20T04:06:07.077Z,21.48
2019-05-20T04:08:33.734Z,3.15
2019-05-20T04:11:00.400Z,4.33
2019-05-20T04:13:27.017Z,1.20
2019-05-20T04:15:53.628Z,1.20
2019-05-20T04:18:39.967Z,1.37
2019-05-20T04:21:06.376Z,3.72
2019-05-20T04:23:32.807Z,2.42
2019-05-20T04:26:01.032Z,1.62
2019-05-20T04:28:27.463Z,2.52
2019-05-20T04:30:54.020Z,1.75
2019-05-20T04:33:21.757Z,2.27
2019-05-20T04:35:49.741Z,7.42
2019-05-20T04:38:16.591Z,3.22
2019-05-20T04:40:43.106Z,13.85
2019-05-20T04:43:09.656Z,3.02
2019-05-20T04:45:36.303Z,8.68
2019-05-20T04:48:16.303Z,11.25
2019-05-20T04:50:42.917Z,15.72
2019-05-20T04:53:09.424Z,3.50
2019-05-20T04:55:35.870Z,2.00
2019-05-20T04:58:02.421Z,4.58
2019-05-20T05:00:52.144Z,2.77
2019-05-20T05:03:18.645Z,51.40
2019-05-20T05:05:45.460Z,13.03
2019-05-20T05:08:11.839Z,60.33
2019-05-20T05:10:38.267Z,18.48
2019-05-20T05:13:04.946Z,34.60
2019-05-20T05:15:31.496Z,14.38
2019-05-20T05:17:58.187Z,7.03
2019-05-20T05:20:24.885Z,6.83
2019-05-20T05:23:11.298Z,4.53
2019-05-20T05:25:39.216Z,6.40
2019-05-20T05:28:06.970Z,6.10
2019-05-20T05:30:34.150Z,4.30
2019-05-20T05:33:01.026Z,3.80
2019-05-20T05:35:27.950Z,5.12
2019-05-20T05:37:58.194Z,4.80
2019-05-20T05:40:30.127Z,11.10
2019-05-20T05:43:00.906Z,11.15
2019-05-20T05:45:32.430Z,11.55
2019-05-20T05:48:04.250Z,16.35
2019-05-20T05:50:31.120Z,6.80
2019-05-20T05:52:57.764Z,6.00
2019-05-20T05:55:25.131Z,12.88
2019-05-20T05:57:51.929Z,12.73
2019-05-20T06:00:19.598Z,18.73
2019-05-20T06:02:46.277Z,11.10
2019-05-20T06:05:13.279Z,9.40
2019-05-20T06:07:39.821Z,10.53
2019-05-20T06:10:06.461Z,15.40
2019-05-20T06:12:32.988Z,18.37
2019-05-20T06:14:59.762Z,11.53
2019-05-20T06:17:26.077Z,9.95
2019-05-20T06:19:53.797Z,11.53
2019-05-20T06:22:20.307Z,10.82
2019-05-20T06:24:46.699Z,10.23
2019-05-20T06:27:13.367Z,16.02
2019-05-20T06:29:40.046Z,28.02
2019-05-20T06:32:06.696Z,27.98
2019-05-20T06:34:33.196Z,15.63
2019-05-20T06:37:04.559Z,11.68
2019-05-20T06:39:31.745Z,13.65
2019-05-20T06:41:58.287Z,14.25
2019-05-20T06:44:25.343Z,78.47
2019-05-20T06:46:51.853Z,19.17
2019-05-20T06:49:18.571Z,16.77
2019-05-20T06:51:45.077Z,17.48
2019-05-20T06:54:11.665Z,15.63
2019-05-20T06:56:38.329Z,25.27
2019-05-20T06:59:04.741Z,11.97
2019-05-20T07:01:31.399Z,14.70
2019-05-20T07:03:58.006Z,17.37
2019-05-20T07:06:24.553Z,12.47
2019-05-20T07:08:52.854Z,20.80
2019-05-20T07:11:19.647Z,15.75
2019-05-20T07:13:46.225Z,24.82
2019-05-20T07:16:13.268Z,20.48
2019-05-20T07:18:39.860Z,32.20
2019-05-20T07:21:06.544Z,31.68
2019-05-20T07:23:33.353Z,67.45
2019-05-20T07:26:00.063Z,28.30
2019-05-20T07:28:27.077Z,25.27
2019-05-20T07:30:53.781Z,25.02
2019-05-20T07:33:20.438Z,23.15
2019-05-20T07:35:47.030Z,25.20
2019-05-20T07:38:13.558Z,21.37
2019-05-20T07:40:40.265Z,24.30
2019-05-20T07:43:08.041Z,22.87
2019-05-20T07:45:35.625Z,26.68
2019-05-20T07:48:05.892Z,23.73
2019-05-20T07:50:35.503Z,26.75
2019-05-20T07:53:03.312Z,24.82
2019-05-20T07:55:33.724Z,30.72
2019-05-20T07:58:03.950Z,22.13
2019-05-20T08:00:30.701Z,25.55
2019-05-20T08:02:57.364Z,26.90
2019-05-20T08:05:23.864Z,26.35
2019-05-20T08:07:52.710Z,24.55
2019-05-20T08:10:19.229Z,24.12
2019-05-20T08:12:45.745Z,28.52
2019-05-20T08:15:12.693Z,24.05
2019-05-20T08:17:52.158Z,21.55
2019-05-20T08:20:18.802Z,20.90
2019-05-20T08:22:45.240Z,24.70
2019-05-20T08:25:12.471Z,24.40
2019-05-20T08:27:39.034Z,24.77
2019-05-20T08:30:06.862Z,25.27
2019-05-20T08:32:34.530Z,28.07
2019-05-20T08:35:01.353Z,37.80
2019-05-20T08:37:44.342Z,30.37
2019-05-20T08:39:57.796Z,25.40
2019-05-20T08:42:24.315Z,25.62
2019-05-20T08:44:51.006Z,54.70
2019-05-20T08:47:17.632Z,48.38
2019-05-20T08:49:44.305Z,36.05
2019-05-20T08:52:11.051Z,39.03
2019-05-20T08:54:40.274Z,29.32
2019-05-20T08:57:06.274Z,25.65
2019-05-20T08:59:32.880Z,25.55
2019-05-20T09:01:59.638Z,22.45
2019-05-20T09:04:26.256Z,28.83
2019-05-20T09:06:52.687Z,25.88
2019-05-20T09:09:19.316Z,23.87
2019-05-20T09:11:47.940Z,25.10
2019-05-20T09:14:14.325Z,27.55
2019-05-20T09:16:41.046Z,54.23
2019-05-20T09:19:07.661Z,36.03
2019-05-20T09:21:34.249Z,34.35
2019-05-20T09:24:00.779Z,36.90
2019-05-20T09:26:27.507Z,36.60
2019-05-20T09:28:54.050Z,38.20
2019-05-20T09:31:20.700Z,35.30
2019-05-20T09:33:47.865Z,36.70
2019-05-20T09:36:14.765Z,59.40
2019-05-20T09:38:41.331Z,78.05
2019-05-20T09:41:08.815Z,64.25
2019-05-20T09:43:35.578Z,37.58
2019-05-20T09:46:07.828Z,44.90
2019-05-20T09:48:30.801Z,36.68
2019-05-20T09:50:57.459Z,35.10
2019-05-20T09:53:24.384Z,34.67
2019-05-20T09:55:51.004Z,31.62
2019-05-20T09:58:17.698Z,30.90
2019-05-20T10:00:45.201Z,28.17
2019-05-20T10:03:11.839Z,28.87
2019-05-20T10:05:38.544Z,30.37
2019-05-20T10:08:05.359Z,27.42
2019-05-20T10:10:33.017Z,27.80
2019-05-20T10:12:59.565Z,29.55
2019-05-20T10:15:26.339Z,32.33
2019-05-20T10:17:52.838Z,41.13
2019-05-20T10:20:19.613Z,31.52
2019-05-20T10:22:46.322Z,33.92
2019-05-20T10:25:13.057Z,36.17
2019-05-20T10:27:39.534Z,32.48
2019-05-20T10:30:09.824Z,31.35
2019-05-20T10:32:36.542Z,32.23
2019-05-20T10:35:04.846Z,32.88
2019-05-20T10:37:31.504Z,30.00
2019-05-20T10:39:58.017Z,31.65
2019-05-20T10:42:38.334Z,30.30
2019-05-20T10:45:05.384Z,31.68
2019-05-20T10:47:32.070Z,28.27
2019-05-20T10:49:58.730Z,33.38
2019-05-20T10:52:25.207Z,30.75
2019-05-20T10:54:51.846Z,30.60
2019-05-20T10:57:18.566Z,28.00
2019-05-20T10:59:45.161Z,30.90
2019-05-20T11:02:12.064Z,30.10
2019-05-20T11:04:38.771Z,34.58
2019-05-20T11:07:05.518Z,43.33
2019-05-20T11:09:32.192Z,31.40
2019-05-20T11:11:58.925Z,32.58
2019-05-20T11:14:25.592Z,45.20
2019-05-20T11:16:52.239Z,33.15
2019-05-20T11:19:18.804Z,35.33
2019-05-20T11:21:45.430Z,30.72
2019-05-20T11:24:12.009Z,37.23
2019-05-20T11:26:38.533Z,33.00
2019-05-20T11:29:05.121Z,29.37
2019-05-20T11:31:31.651Z,29.87
2019-05-20T11:33:58.270Z,34.63
2019-05-20T11:36:25.023Z,34.58
2019-05-20T11:38:54.800Z,63.38
2019-05-20T11:41:51.009Z,33.20
2019-05-20T11:43:50.629Z,32.05
2019-05-20T11:46:17.172Z,32.58
2019-05-20T11:48:44.292Z,31.77
2019-05-20T11:51:10.917Z,31.90
2019-05-20T11:53:37.551Z,33.00
2019-05-20T11:56:17.817Z,33.83
2019-05-20T11:58:51.823Z,32.00
2019-05-20T12:01:18.467Z,32.43
2019-05-20T12:03:51.734Z,36.30
2019-05-20T12:06:18.252Z,31.73
2019-05-20T12:08:44.820Z,28.92
2019-05-20T12:11:25.787Z,29.30
2019-05-20T12:13:52.507Z,31.80
2019-05-20T12:16:19.164Z,28.60
2019-05-20T12:18:45.713Z,32.58
2019-05-20T12:21:12.275Z,35.70
2019-05-20T12:23:39.274Z,34.98
2019-05-20T12:26:05.691Z,32.70
2019-05-20T12:28:33.587Z,36.05
2019-05-20T12:31:00.053Z,31.55
2019-05-20T12:33:26.561Z,31.40
2019-05-20T12:35:53.258Z,31.82
2019-05-20T12:38:19.806Z,30.43
2019-05-20T12:40:46.355Z,29.87
2019-05-20T12:43:13.178Z,29.98
2019-05-20T12:45:39.705Z,32.33
2019-05-20T12:48:06.427Z,29.02
2019-05-20T12:50:32.928Z,26.35
2019-05-20T12:52:59.302Z,23.20
2019-05-20T12:55:25.853Z,19.20
2019-05-20T12:57:52.469Z,18.27
2019-05-20T13:00:30.193Z,17.77
2019-05-20T13:02:56.761Z,18.23
2019-05-20T13:05:23.453Z,16.35
2019-05-20T13:07:50.029Z,14.05
2019-05-20T13:10:36.426Z,16.00
2019-05-20T13:13:03.073Z,13.08
2019-05-20T13:15:29.698Z,15.32
2019-05-20T13:17:56.247Z,16.65
2019-05-20T13:20:22.636Z,16.10
2019-05-20T13:22:49.520Z,15.28
2019-05-20T13:25:16.432Z,18.75
2019-05-20T13:27:42.941Z,16.15
2019-05-20T13:30:10.392Z,16.95
2019-05-20T13:32:36.925Z,15.80
2019-05-20T13:35:05.910Z,17.70
2019-05-20T13:37:32.469Z,19.57
2019-05-20T13:40:02.981Z,16.77
2019-05-20T13:42:27.525Z,16.35
2019-05-20T13:44:54.118Z,16.05
2019-05-20T13:47:21.255Z,16.42
2019-05-20T13:49:47.725Z,16.48
2019-05-20T13:52:14.462Z,20.45
2019-05-20T13:54:41.089Z,16.10
2019-05-20T13:57:12.038Z,15.72
2019-05-20T13:59:36.033Z,20.77
2019-05-20T14:02:02.641Z,21.20
2019-05-20T14:04:29.084Z,19.92
2019-05-20T14:06:55.803Z,18.75
2019-05-20T14:09:22.273Z,16.37
2019-05-20T14:11:48.859Z,20.00
2019-05-20T14:14:15.614Z,16.80
2019-05-20T14:16:42.043Z,14.45
2019-05-20T14:19:08.760Z,12.28
2019-05-20T14:21:35.391Z,7.97
2019-05-20T14:24:01.930Z,9.35
2019-05-20T14:26:28.470Z,8.93
2019-05-20T14:28:54.931Z,8.98
2019-05-20T14:31:21.570Z,7.55
2019-05-20T14:33:47.988Z,7.08
2019-05-20T14:36:37.279Z,7.37
2019-05-20T14:38:43.979Z,7.67
2019-05-20T14:41:21.133Z,7.50
2019-05-20T14:43:51.925Z,9.18
2019-05-20T14:46:18.449Z,12.93
2019-05-20T14:48:46.007Z,8.05
2019-05-20T14:51:12.676Z,7.70
2019-05-20T14:53:39.254Z,7.60
2019-05-20T14:56:05.702Z,6.95
2019-05-20T14:58:32.344Z,7.30
2019-05-20T15:00:58.858Z,7.12
2019-05-20T15:03:25.530Z,7.25
2019-05-20T15:05:52.173Z,6.25
2019-05-20T15:08:18.620Z,6.65
2019-05-20T15:10:45.223Z,6.62
2019-05-20T15:13:11.869Z,8.88
2019-05-20T15:15:38.670Z,6.92
2019-05-20T15:18:05.124Z,4.47
2019-05-20T15:20:32.799Z,5.87
2019-05-20T15:22:59.503Z,3.58
2019-05-20T15:25:25.927Z,3.12
2019-05-20T15:27:53.522Z,4.42
2019-05-20T15:30:20.283Z,3.62
2019-05-20T15:32:50.125Z,7.15
2019-05-20T15:35:17.105Z,2.58
2019-05-20T15:37:43.680Z,2.62
2019-05-20T15:40:10.353Z,3.42
2019-05-20T15:42:37.001Z,3.35
2019-05-20T15:45:06.569Z,5.28
2019-05-20T15:47:33.327Z,11.35
2019-05-20T15:50:00.928Z,3.02
2019-05-20T15:52:27.508Z,4.20
2019-05-20T15:54:54.116Z,3.30
2019-05-20T15:57:20.667Z,4.65
2019-05-20T15:59:47.333Z,5.05
2019-05-20T16:02:14.338Z,5.83
2019-05-20T16:04:41.011Z,6.20
2019-05-20T16:07:07.662Z,7.15
2019-05-20T16:09:34.211Z,8.65
2019-05-20T16:12:00.811Z,9.25
2019-05-20T16:14:27.236Z,9.88
2019-05-20T16:16:53.829Z,10.88
2019-05-20T16:19:20.357Z,10.45
2019-05-20T16:21:47.917Z,11.10
2019-05-20T16:24:14.898Z,12.18
2019-05-20T16:26:41.512Z,12.50
2019-05-20T16:29:08.142Z,12.73
2019-05-20T16:31:34.860Z,12.68
2019-05-20T16:34:01.393Z,12.30
2019-05-20T16:36:27.899Z,12.45
2019-05-20T16:38:54.222Z,10.93
2019-05-20T16:41:22.126Z,10.32
2019-05-20T16:43:48.623Z,11.88
2019-05-20T16:46:15.313Z,10.78
2019-05-20T16:48:41.947Z,12.58
2019-05-20T16:51:08.698Z,10.78
2019-05-20T16:53:35.546Z,10.00
2019-05-20T16:56:02.661Z,8.65
2019-05-20T16:58:30.129Z,9.05
2019-05-20T17:00:56.790Z,9.73
2019-05-20T17:03:23.378Z,8.60
2019-05-20T17:05:49.884Z,9.28
2019-05-20T17:08:16.308Z,9.65
2019-05-20T17:10:43.149Z,9.63
2019-05-20T17:13:09.758Z,11.15
2019-05-20T17:15:36.346Z,9.05
2019-05-20T17:18:02.949Z,9.90
2019-05-20T17:20:29.699Z,9.95
2019-05-20T17:22:56.183Z,10.80
2019-05-20T17:25:23.481Z,10.45
2019-05-20T17:27:49.962Z,10.53
2019-05-20T17:30:16.655Z,10.95
2019-05-20T17:32:43.210Z,12.15
2019-05-20T17:35:10.827Z,11.43
2019-05-20T17:37:37.421Z,15.30
2019-05-20T17:40:07.925Z,14.35
2019-05-20T17:42:34.569Z,13.22
2019-05-20T17:45:01.125Z,12.45
2019-05-20T17:47:27.743Z,19.65
2019-05-20T17:49:54.342Z,19.42
2019-05-20T17:52:21.380Z,27.48
2019-05-20T17:54:48.291Z,27.77
2019-05-20T17:57:15.045Z,22.17
2019-05-20T18:00:03.098Z,16.45
2019-05-20T18:02:31.033Z,20.80
2019-05-20T18:04:57.733Z,22.62
2019-05-20T18:07:24.272Z,15.05
2019-05-20T18:09:52.986Z,16.02
2019-05-20T18:12:19.742Z,8.95
2019-05-20T18:14:48.173Z,12.28
2019-05-20T18:17:14.780Z,10.53
2019-05-20T18:19:41.332Z,9.20
2019-05-20T18:22:08.016Z,9.38
2019-05-20T18:24:34.726Z,8.43
2019-05-20T18:27:01.314Z,11.90
2019-05-20T18:29:27.952Z,10.18
2019-05-20T18:31:54.506Z,9.43
2019-05-20T18:34:21.197Z,13.32
2019-05-20T18:36:47.817Z,10.78
2019-05-20T18:39:14.528Z,16.90
2019-05-20T18:41:41.300Z,7.72
2019-05-20T18:44:07.734Z,6.90
2019-05-20T18:46:35.425Z,7.50
2019-05-20T18:49:02.034Z,7.80
2019-05-20T18:51:28.428Z,9.00
2019-05-20T18:53:56.152Z,5.83
2019-05-20T18:56:22.920Z,5.30
2019-05-20T18:58:49.415Z,5.45
2019-05-20T19:01:19.288Z,5.67
2019-05-20T19:03:44.488Z,4.22
2019-05-20T19:06:11.022Z,9.08
2019-05-20T19:08:37.764Z,7.10
2019-05-20T19:11:04.428Z,6.00
2019-05-20T19:13:31.098Z,6.53
2019-05-20T19:15:57.617Z,6.50
2019-05-20T19:18:24.247Z,5.12
2019-05-20T19:20:50.753Z,5.65
2019-05-20T19:23:17.087Z,5.00
2019-05-20T19:25:44.099Z,4.78
2019-05-20T19:28:10.883Z,5.95
2019-05-20T19:30:57.471Z,5.80
2019-05-20T19:33:24.294Z,6.72
2019-05-20T19:35:50.990Z,4.42
2019-05-20T19:38:17.728Z,11.97
2019-05-20T19:40:45.467Z,4.40
2019-05-20T19:43:12.096Z,8.55
2019-05-20T19:45:38.934Z,17.92
2019-05-20T19:48:05.623Z,16.90
2019-05-20T19:50:32.356Z,15.75
2019-05-20T19:52:59.384Z,28.38
2019-05-20T19:55:26.924Z,28.00
2019-05-20T19:57:53.555Z,39.75
2019-05-20T20:00:20.838Z,24.47
2019-05-20T20:02:47.397Z,21.95
2019-05-20T20:05:14.158Z,16.48
2019-05-20T20:07:40.764Z,15.60
2019-05-20T20:10:07.532Z,11.35
2019-05-20T20:12:33.990Z,8.18
2019-05-20T20:15:00.728Z,8.38
2019-05-20T20:17:27.116Z,9.15
2019-05-20T20:19:53.662Z,6.10
2019-05-20T20:22:20.364Z,5.42
2019-05-20T20:24:47.052Z,4.92
2019-05-20T20:27:13.587Z,14.43
2019-05-20T20:29:40.124Z,11.85
2019-05-20T20:32:06.627Z,7.12
2019-05-20T20:34:33.186Z,7.60
2019-05-20T20:36:59.776Z,7.15
2019-05-20T20:39:26.399Z,9.00
2019-05-20T20:41:53.069Z,6.25
2019-05-20T20:44:19.508Z,6.90
2019-05-20T20:46:46.754Z,5.28
2019-05-20T20:49:14.894Z,6.00
2019-05-20T20:51:41.924Z,6.70
2019-05-20T20:54:08.365Z,7.58
2019-05-20T20:56:35.156Z,9.23
2019-05-20T20:59:02.905Z,10.53
2019-05-20T21:01:30.700Z,8.28
2019-05-20T21:03:58.757Z,10.13
2019-05-20T21:06:25.536Z,12.37
2019-05-20T21:08:52.254Z,10.93
2019-05-20T21:11:18.790Z,11.35
2019-05-20T21:13:45.250Z,9.63
2019-05-20T21:16:12.838Z,14.03
2019-05-20T21:18:39.611Z,11.22
2019-05-20T21:21:06.228Z,10.05
2019-05-20T21:23:32.942Z,9.98
2019-05-20T21:25:59.445Z,9.33
2019-05-20T21:28:26.006Z,10.38
2019-05-20T21:30:52.586Z,11.93
2019-05-20T21:33:19.325Z,9.00
2019-05-20T21:35:45.933Z,17.57
2019-05-20T21:38:12.435Z,10.50
2019-05-20T21:40:39.034Z,10.10
2019-05-20T21:43:05.826Z,9.23
2019-05-20T21:45:32.534Z,9.38
2019-05-20T21:47:59.102Z,9.63
2019-05-20T21:50:25.655Z,9.43
2019-05-20T21:52:52.320Z,10.40
2019-05-20T21:55:18.906Z,10.70
2019-05-20T21:57:46.232Z,9.15
2019-05-20T22:00:14.833Z,13.13
2019-05-20T22:02:46.028Z,13.35
2019-05-20T22:05:32.446Z,12.13
2019-05-20T22:07:58.902Z,10.50
2019-05-20T22:10:25.454Z,10.10
2019-05-20T22:12:52.140Z,12.05
2019-05-20T22:15:18.597Z,11.35
2019-05-20T22:17:45.143Z,13.50
2019-05-20T22:20:11.906Z,11.73
2019-05-20T22:22:43.365Z,12.40
2019-05-20T22:25:11.956Z,10.55
2019-05-20T22:27:38.550Z,9.98
2019-05-20T22:30:06.900Z,11.03
2019-05-20T22:32:33.572Z,11.00
2019-05-20T22:35:00.158Z,11.22
2019-05-20T22:37:26.682Z,10.68
2019-05-20T22:39:53.126Z,10.85
2019-05-20T22:42:19.704Z,10.90
2019-05-20T22:44:46.333Z,11.75
2019-05-20T22:47:12.877Z,10.78
2019-05-20T22:49:39.901Z,11.70
2019-05-20T22:52:06.449Z,11.63
2019-05-20T22:54:33.103Z,12.40
2019-05-20T22:56:59.610Z,10.75
2019-05-20T22:59:26.186Z,10.95
2019-05-20T23:01:54.118Z,10.28
2019-05-20T23:04:20.625Z,13.22
2019-05-20T23:06:47.209Z,11.97
2019-05-20T23:09:14.975Z,13.03
2019-05-20T23:11:54.962Z,14.05
2019-05-20T23:14:21.479Z,10.43
2019-05-20T23:16:48.022Z,12.37
2019-05-20T23:19:14.503Z,10.25
2019-05-20T23:21:40.886Z,11.00
2019-05-20T23:24:07.336Z,11.25
2019-05-20T23:26:33.736Z,10.85
2019-05-20T23:29:01.541Z,11.38
2019-05-20T23:31:27.981Z,9.98
2019-05-20T23:34:10.348Z,10.82
2019-05-20T23:36:24.275Z,11.33
2019-05-20T23:38:50.835Z,11.43
2019-05-20T23:41:17.309Z,11.05
2019-05-20T23:43:43.724Z,10.68
2019-05-20T23:46:10.022Z,10.60
2019-05-20T23:48:36.489Z,10.18
2019-05-20T23:51:04.076Z,9.95
2019-05-20T23:53:30.595Z,9.65
2019-05-20T23:55:57.119Z,9.10
2019-05-20T23:58:23.791Z,9.43
